Time;durP1;ratioP1;P1;durP2;ratioP2;P2;SDS_P1;SDS_P2;PMS_P1;PMS_P2;Temp;Humidity;BMP_temperature;BMP_pressure;BME280_temperature;BME280_humidity;BME280_pressure;Samples;Min_cycle;Max_cycle;Signal;HPM_P1;HPM_P2
2021/12/30 00:01:04;;;;;;;16.63;15.83;;;21.40;99.90;;;;;;5039514;28;20846;-60
2021/12/30 00:03:31;;;;;;;16.10;15.40;;;21.40;99.90;;;;;;5039370;28;20463;-52
2021/12/30 00:05:58;;;;;;;16.43;15.63;;;21.40;99.90;;;;;;5039475;28;20837;-57
2021/12/30 00:08:25;;;;;;;16.40;15.70;;;21.30;99.90;;;;;;5039476;28;20476;-58
2021/12/30 00:10:53;;;;;;;15.90;15.33;;;21.30;99.90;;;;;;5039390;28;20452;-59
2021/12/30 00:13:22;;;;;;;16.40;15.80;;;21.30;99.90;;;;;;5038986;28;20448;-56
2021/12/30 00:15:50;;;;;;;17.03;16.13;;;21.30;99.90;;;;;;5039112;28;20444;-59
2021/12/30 00:18:17;;;;;;;16.33;15.63;;;21.30;99.90;;;;;;5039766;28;20456;-56
2021/12/30 00:20:44;;;;;;;17.03;16.23;;;21.30;99.90;;;;;;5042884;28;20475;-58
2021/12/30 00:23:11;;;;;;;17.90;16.80;;;21.30;99.90;;;;;;5042581;28;20452;-58
2021/12/30 00:25:41;;;;;;;16.40;15.80;;;21.30;99.90;;;;;;5042671;28;20483;-57
2021/12/30 00:28:10;;;;;;;16.27;15.37;;;21.30;99.90;;;;;;5042791;28;20901;-61
2021/12/30 00:30:40;;;;;;;16.73;16.07;;;21.30;99.90;;;;;;5043042;28;20455;-59
2021/12/30 00:33:07;;;;;;;15.60;15.00;;;21.30;99.90;;;;;;5045389;28;20609;-59
2021/12/30 00:35:36;;;;;;;16.43;15.63;;;21.30;99.90;;;;;;5044891;28;20239;-55
2021/12/30 00:38:04;;;;;;;16.17;15.47;;;21.40;99.90;;;;;;5042476;28;20456;-56
2021/12/30 00:40:31;;;;;;;15.97;15.30;;;21.30;99.90;;;;;;5042684;28;20938;-50
2021/12/30 00:43:00;;;;;;;16.37;15.50;;;21.30;99.90;;;;;;5042381;28;20458;-59
2021/12/30 00:45:27;;;;;;;17.37;16.37;;;21.40;99.90;;;;;;5042920;28;20699;-53
2021/12/30 00:47:56;;;;;;;19.80;18.40;;;21.40;99.90;;;;;;5042674;28;21020;-57
2021/12/30 00:50:24;;;;;;;20.07;18.63;;;21.40;99.90;;;;;;5042743;28;20470;-57
2021/12/30 00:52:51;;;;;;;20.40;19.20;;;21.40;99.90;;;;;;5042355;28;20454;-60
2021/12/30 00:55:18;;;;;;;20.27;18.50;;;21.40;99.90;;;;;;5041211;28;20452;-63
2021/12/30 00:57:46;;;;;;;20.05;18.65;;;21.40;99.90;;;;;;5041980;28;20487;-63
2021/12/30 01:00:16;;;;;;;18.70;17.50;;;21.50;99.90;;;;;;5042194;28;20797;-64
2021/12/30 01:02:43;;;;;;;20.80;19.27;;;21.60;99.90;;;;;;5042101;28;20497;-55
2021/12/30 01:05:12;;;;;;;19.97;18.77;;;21.60;99.90;;;;;;5042334;28;20506;-56
2021/12/30 01:07:40;;;;;;;19.00;17.80;;;21.50;99.90;;;;;;5042366;28;20444;-56
2021/12/30 01:10:10;;;;;;;18.43;17.33;;;21.50;99.90;;;;;;5042585;28;20901;-53
2021/12/30 01:12:37;;;;;;;19.93;18.67;;;21.50;99.90;;;;;;5042764;28;20444;-59
2021/12/30 01:15:08;;;;;;;18.60;17.63;;;21.50;99.90;;;;;;5043167;28;20491;-60
2021/12/30 01:17:45;;;;;;;19.00;17.70;;;21.50;99.90;;;;;;5041952;28;20451;-59
2021/12/30 01:20:16;;;;;;;18.20;17.10;;;21.50;99.90;;;;;;5041658;28;20451;-60
2021/12/30 01:22:44;;;;;;;19.17;17.80;;;21.50;99.90;;;;;;5042245;28;20205;-65
2021/12/30 01:25:12;;;;;;;17.53;16.63;;;21.50;99.90;;;;;;5044057;28;20491;-65
2021/12/30 01:27:40;;;;;;;17.33;16.23;;;21.50;99.90;;;;;;5041228;28;20543;-66
2021/12/30 01:30:11;;;;;;;17.08;16.08;;;21.60;99.90;;;;;;5040853;28;20444;-59
2021/12/30 01:32:38;;;;;;;18.80;17.83;;;21.70;99.90;;;;;;5042130;28;20241;-63
2021/12/30 01:35:08;;;;;;;18.00;17.20;;;21.70;99.90;;;;;;5042233;28;20452;-51
2021/12/30 01:37:37;;;;;;;19.17;17.93;;;21.70;99.90;;;;;;5041513;28;20466;-52
2021/12/30 01:40:06;;;;;;;17.13;16.33;;;21.70;99.90;;;;;;5041583;28;20994;-52
2021/12/30 01:42:33;;;;;;;17.83;17.03;;;21.70;99.90;;;;;;5041290;28;20841;-57
2021/12/30 01:45:00;;;;;;;18.43;17.37;;;21.60;99.90;;;;;;5041384;28;20579;-54
2021/12/30 01:47:27;;;;;;;17.70;16.80;;;21.60;99.90;;;;;;5041493;28;20444;-53
2021/12/30 01:49:54;;;;;;;17.53;16.67;;;21.60;99.90;;;;;;5041743;28;21015;-52
2021/12/30 01:52:22;;;;;;;17.50;16.60;;;21.60;99.90;;;;;;5041505;28;20812;-60
2021/12/30 01:54:50;;;;;;;17.97;17.00;;;21.60;99.90;;;;;;5041377;28;20941;-52
2021/12/30 01:57:18;;;;;;;17.20;16.30;;;21.60;99.90;;;;;;5041248;28;20459;-57
2021/12/30 01:59:45;;;;;;;17.23;16.20;;;21.60;99.90;;;;;;5041153;28;20525;-52
2021/12/30 02:02:12;;;;;;;17.30;16.27;;;21.60;99.90;;;;;;5040972;28;20459;-54
2021/12/30 02:04:39;;;;;;;17.57;16.57;;;21.60;99.90;;;;;;5040744;28;20562;-54
2021/12/30 02:07:06;;;;;;;16.23;15.33;;;21.60;99.90;;;;;;5040107;28;20837;-54
2021/12/30 02:09:33;;;;;;;17.67;16.83;;;21.70;99.90;;;;;;5055936;22;21078;-61
2021/12/30 02:12:02;;;;;;;18.03;17.10;;;21.70;99.90;;;;;;5021831;28;20461;-58
2021/12/30 02:14:33;;;;;;;16.50;15.83;;;21.80;99.90;;;;;;5021039;28;20449;-66
2021/12/30 02:17:00;;;;;;;16.90;16.13;;;21.70;99.90;;;;;;5021896;28;20494;-65
2021/12/30 02:19:27;;;;;;;17.27;16.40;;;21.60;99.90;;;;;;5024275;28;20846;-66
2021/12/30 02:21:55;;;;;;;16.60;15.90;;;21.60;99.90;;;;;;5024586;28;20567;-63
2021/12/30 02:24:22;;;;;;;16.17;15.53;;;21.60;99.90;;;;;;5022974;28;20458;-65
2021/12/30 02:26:49;;;;;;;16.67;15.67;;;21.60;99.90;;;;;;5020877;28;20487;-62
2021/12/30 02:29:16;;;;;;;17.27;16.27;;;21.60;99.90;;;;;;5024206;28;20905;-64
2021/12/30 02:31:43;;;;;;;16.73;15.90;;;21.60;99.90;;;;;;5020678;28;20449;-66
2021/12/30 02:34:10;;;;;;;17.00;16.20;;;21.60;99.90;;;;;;5021391;28;20879;-63
2021/12/30 02:36:38;;;;;;;17.60;16.50;;;21.60;99.90;;;;;;5020707;28;20452;-65
2021/12/30 02:39:09;;;;;;;17.40;16.08;;;21.50;99.60;;;;;;5019929;28;20506;-65
2021/12/30 02:41:38;;;;;;;18.25;17.05;;;21.20;99.90;;;;;;5019228;28;20468;-61
2021/12/30 02:44:08;;;;;;;17.63;16.63;;;21.10;99.10;;;;;;5020296;28;20218;-60
2021/12/30 02:46:37;;;;;;;17.73;16.83;;;20.90;99.80;;;;;;5020183;28;20608;-62
2021/12/30 02:49:04;;;;;;;17.77;16.53;;;20.80;99.90;;;;;;5020188;28;20477;-57
2021/12/30 02:51:31;;;;;;;17.50;16.50;;;20.70;99.90;;;;;;5020140;28;20953;-60
2021/12/30 02:53:59;;;;;;;17.05;16.15;;;20.60;99.90;;;;;;5019867;28;20567;-59
2021/12/30 02:56:30;;;;;;;16.83;15.90;;;20.50;99.90;;;;;;5020123;28;20516;-60
2021/12/30 02:58:58;;;;;;;17.07;16.23;;;20.30;99.90;;;;;;5020206;28;20230;-64
2021/12/30 03:01:28;;;;;;;17.43;16.47;;;20.20;99.90;;;;;;5020039;28;20445;-64
2021/12/30 03:03:55;;;;;;;16.97;16.07;;;20.20;99.90;;;;;;5020111;28;20449;-61
2021/12/30 03:06:22;;;;;;;16.60;15.60;;;20.00;99.90;;;;;;5020127;28;20999;-64
2021/12/30 03:08:51;;;;;;;17.00;16.10;;;19.80;99.90;;;;;;5019952;28;20476;-58
2021/12/30 03:11:19;;;;;;;16.60;15.90;;;19.80;99.90;;;;;;5019457;28;20974;-51
2021/12/30 03:13:48;;;;;;;16.70;15.80;;;19.70;99.90;;;;;;5019989;28;20214;-57
2021/12/30 03:16:21;;;;;;;17.50;16.30;;;19.90;99.90;;;;;;5020496;28;20455;-57
2021/12/30 03:18:49;;;;;;;15.20;14.48;;;20.10;99.90;;;;;;5019283;28;20433;-54
2021/12/30 03:21:19;;;;;;;16.43;15.50;;;20.20;99.90;;;;;;5023541;28;20202;-57
2021/12/30 03:23:47;;;;;;;16.67;15.70;;;20.40;99.90;;;;;;5019975;28;20784;-56
2021/12/30 03:26:15;;;;;;;17.07;16.27;;;20.40;99.90;;;;;;5039765;28;20563;-60
2021/12/30 03:28:43;;;;;;;16.80;15.90;;;20.50;99.90;;;;;;5039490;28;21227;-54
2021/12/30 03:31:13;;;;;;;15.87;15.27;;;20.50;99.90;;;;;;5039706;28;20806;-60
2021/12/30 03:33:40;;;;;;;16.30;15.50;;;20.60;99.90;;;;;;5033176;28;20564;-57
2021/12/30 03:36:09;;;;;;;16.73;15.90;;;20.60;99.90;;;;;;5019703;28;20890;-52
2021/12/30 03:38:38;;;;;;;15.83;15.10;;;20.70;99.90;;;;;;5019447;28;20861;-59
2021/12/30 03:41:08;;;;;;;15.90;15.10;;;20.70;99.90;;;;;;5022629;28;20445;-63
2021/12/30 03:43:35;;;;;;;15.93;15.20;;;20.70;99.90;;;;;;5022881;28;20455;-60
2021/12/30 03:46:03;;;;;;;16.57;15.80;;;20.80;99.90;;;;;;5020210;28;20484;-57
2021/12/30 03:48:33;;;;;;;16.60;16.00;;;20.80;99.90;;;;;;5019447;28;20452;-61
2021/12/30 03:51:04;;;;;;;15.90;15.10;;;20.90;99.90;;;;;;5023377;28;20460;-59
2021/12/30 03:53:37;;;;;;;16.17;15.57;;;20.90;99.90;;;;;;5020458;28;20500;-54
2021/12/30 03:56:05;;;;;;;16.27;15.67;;;21.00;99.90;;;;;;5023695;28;20453;-53
2021/12/30 03:58:32;;;;;;;16.50;15.70;;;21.00;99.90;;;;;;5023477;28;20526;-58
2021/12/30 04:00:59;;;;;;;16.07;15.37;;;21.00;99.90;;;;;;5023211;28;21055;-65
2021/12/30 04:03:26;;;;;;;16.93;16.33;;;21.00;99.90;;;;;;5052207;28;20448;-60
2021/12/30 04:05:54;;;;;;;16.90;16.20;;;21.00;99.90;;;;;;5055124;28;20487;-63
2021/12/30 04:08:20;;;;;;;16.30;15.70;;;21.00;99.90;;;;;;5055004;28;20440;-63
2021/12/30 04:10:47;;;;;;;16.80;16.10;;;21.00;99.90;;;;;;5055052;28;20440;-65
2021/12/30 04:13:15;;;;;;;16.43;15.63;;;20.90;99.90;;;;;;5053407;28;20455;-63
2021/12/30 04:15:42;;;;;;;16.10;15.47;;;20.90;99.90;;;;;;5042089;28;20980;-62
2021/12/30 04:18:08;;;;;;;16.43;15.90;;;20.90;99.90;;;;;;5034860;28;20437;-63
2021/12/30 04:20:35;;;;;;;16.37;15.67;;;20.90;99.90;;;;;;5034917;28;20472;-64
2021/12/30 04:23:03;;;;;;;17.00;16.13;;;20.90;99.90;;;;;;5036150;28;20444;-64
2021/12/30 04:25:31;;;;;;;16.20;15.60;;;20.80;99.90;;;;;;5054765;28;20630;-64
2021/12/30 04:27:57;;;;;;;16.13;15.47;;;20.80;99.90;;;;;;5054736;28;20447;-64
2021/12/30 04:30:24;;;;;;;16.53;15.67;;;20.80;99.90;;;;;;5053435;28;20466;-64
2021/12/30 04:32:51;;;;;;;15.90;15.07;;;20.80;99.90;;;;;;5034404;28;20986;-65
2021/12/30 04:35:17;;;;;;;15.80;15.20;;;20.80;99.90;;;;;;5034694;28;20876;-64
2021/12/30 04:37:44;;;;;;;16.00;15.40;;;20.80;99.90;;;;;;5034660;28;20476;-64
2021/12/30 04:40:14;;;;;;;16.80;16.20;;;20.80;99.90;;;;;;5034559;28;20465;-64
2021/12/30 04:42:41;;;;;;;15.47;14.97;;;20.80;99.90;;;;;;5053518;28;20464;-64
2021/12/30 04:45:09;;;;;;;16.77;16.03;;;20.80;99.90;;;;;;5054075;28;20451;-64
2021/12/30 04:47:38;;;;;;;15.70;15.20;;;20.80;99.90;;;;;;5054299;28;20484;-64
2021/12/30 04:50:06;;;;;;;16.33;15.73;;;20.80;99.90;;;;;;5054271;28;20467;-65
2021/12/30 04:52:32;;;;;;;16.10;15.50;;;20.80;99.90;;;;;;5052267;28;20444;-64
2021/12/30 04:54:59;;;;;;;16.07;15.47;;;20.80;99.90;;;;;;5034253;28;20456;-64
2021/12/30 04:57:27;;;;;;;15.97;15.37;;;20.80;99.90;;;;;;5034344;28;20441;-63
2021/12/30 04:59:54;;;;;;;17.03;15.90;;;20.70;99.90;;;;;;5034115;28;20472;-64
2021/12/30 05:02:22;;;;;;;16.20;15.60;;;20.70;99.90;;;;;;5033872;28;20445;-63
2021/12/30 05:04:49;;;;;;;16.03;15.53;;;20.70;99.90;;;;;;5034932;28;20465;-64
2021/12/30 05:07:16;;;;;;;15.90;15.30;;;20.70;99.90;;;;;;5053296;28;20487;-62
2021/12/30 05:09:42;;;;;;;17.00;16.40;;;20.70;99.90;;;;;;5053720;28;20472;-64
2021/12/30 05:12:09;;;;;;;15.90;15.30;;;20.70;99.90;;;;;;5053728;28;20498;-64
2021/12/30 05:14:37;;;;;;;16.33;15.63;;;20.70;99.90;;;;;;5053806;28;20443;-62
2021/12/30 05:17:04;;;;;;;17.00;16.40;;;20.70;99.90;;;;;;5046823;28;20947;-64
2021/12/30 05:19:31;;;;;;;16.50;15.87;;;20.70;99.90;;;;;;5033760;28;20472;-64
2021/12/30 05:21:58;;;;;;;16.63;16.03;;;20.70;99.90;;;;;;5033682;28;20988;-64
2021/12/30 05:24:25;;;;;;;17.10;16.40;;;20.60;99.90;;;;;;5033853;28;20445;-64
2021/12/30 05:26:52;;;;;;;16.40;15.80;;;20.60;99.90;;;;;;5033626;28;21012;-64
2021/12/30 05:29:18;;;;;;;16.87;16.27;;;20.60;99.90;;;;;;5044150;28;20464;-64
2021/12/30 05:31:46;;;;;;;16.60;16.00;;;20.60;99.90;;;;;;5053458;28;20444;-64
2021/12/30 05:34:13;;;;;;;16.30;15.60;;;20.60;99.90;;;;;;5053128;28;20448;-64
2021/12/30 05:36:39;;;;;;;16.37;15.77;;;20.60;99.90;;;;;;5053380;28;20448;-64
2021/12/30 05:39:08;;;;;;;16.60;16.10;;;20.60;99.90;;;;;;5053358;28;20466;-64
2021/12/30 05:41:35;;;;;;;15.90;15.40;;;20.60;99.90;;;;;;5040827;28;20511;-64
2021/12/30 05:44:02;;;;;;;17.00;16.40;;;20.60;99.90;;;;;;5033270;28;20452;-64
2021/12/30 05:46:29;;;;;;;17.40;16.80;;;20.60;99.90;;;;;;5033407;28;21002;-64
2021/12/30 05:48:57;;;;;;;16.30;15.80;;;20.60;99.90;;;;;;5033240;28;20475;-64
2021/12/30 05:51:24;;;;;;;16.50;16.00;;;20.60;99.90;;;;;;5033274;28;20825;-64
2021/12/30 05:53:51;;;;;;;17.70;17.00;;;20.50;99.90;;;;;;5049779;28;20451;-63
2021/12/30 05:56:17;;;;;;;16.40;15.80;;;20.50;99.90;;;;;;5053133;28;20961;-64
2021/12/30 05:58:44;;;;;;;16.03;15.53;;;20.50;99.90;;;;;;5052925;28;20460;-65
2021/12/30 06:01:11;;;;;;;16.47;15.97;;;20.50;99.90;;;;;;5053067;28;20448;-64
2021/12/30 06:03:37;;;;;;;16.93;16.33;;;20.50;99.90;;;;;;5052704;28;20816;-65
2021/12/30 06:06:05;;;;;;;16.10;15.60;;;20.50;99.90;;;;;;5034289;28;20485;-64
2021/12/30 06:08:32;;;;;;;16.67;16.00;;;20.50;99.90;;;;;;5032730;28;20498;-64
2021/12/30 06:10:59;;;;;;;16.37;15.87;;;20.50;99.90;;;;;;5032954;28;20856;-64
2021/12/30 06:13:25;;;;;;;16.87;16.33;;;20.50;99.90;;;;;;5032699;28;20860;-64
2021/12/30 06:15:52;;;;;;;16.20;15.60;;;20.50;99.90;;;;;;5033530;28;20445;-64
2021/12/30 06:18:19;;;;;;;16.10;15.60;;;20.50;99.90;;;;;;5052530;28;20452;-62
2021/12/30 06:20:45;;;;;;;16.00;15.50;;;20.50;99.90;;;;;;5052585;28;20818;-63
2021/12/30 06:23:14;;;;;;;15.87;15.37;;;20.50;99.90;;;;;;5052316;28;20447;-63
2021/12/30 06:25:40;;;;;;;16.30;15.80;;;20.50;99.90;;;;;;5052559;28;20440;-63
2021/12/30 06:28:07;;;;;;;16.10;15.60;;;20.50;99.90;;;;;;5049048;28;20504;-64
2021/12/30 06:30:34;;;;;;;16.13;15.63;;;20.50;99.90;;;;;;5032573;28;20461;-64
2021/12/30 06:33:00;;;;;;;16.20;15.70;;;20.50;99.90;;;;;;5032219;28;20873;-64
2021/12/30 06:35:31;;;;;;;16.90;16.30;;;20.50;99.90;;;;;;5032453;28;20457;-64
2021/12/30 06:37:59;;;;;;;16.20;15.60;;;20.50;99.90;;;;;;5032406;28;20467;-64
2021/12/30 06:40:27;;;;;;;15.87;15.37;;;20.50;99.90;;;;;;5036853;28;20464;-63
2021/12/30 06:42:54;;;;;;;15.90;15.40;;;20.50;99.90;;;;;;5052034;28;20440;-64
2021/12/30 06:45:20;;;;;;;15.97;15.47;;;20.50;99.90;;;;;;5051872;28;20448;-64
2021/12/30 06:47:48;;;;;;;15.57;15.07;;;20.50;99.90;;;;;;5052101;28;20479;-64
2021/12/30 06:50:16;;;;;;;16.30;15.70;;;20.50;99.90;;;;;;5052070;28;20506;-64
2021/12/30 06:52:46;;;;;;;16.20;15.70;;;20.50;99.90;;;;;;5045357;28;20453;-62
2021/12/30 06:55:13;;;;;;;16.27;15.67;;;20.50;99.90;;;;;;5032375;28;20452;-63
2021/12/30 06:57:41;;;;;;;15.40;14.90;;;20.50;99.90;;;;;;5032008;28;20452;-63
2021/12/30 07:00:10;;;;;;;15.80;15.30;;;20.50;99.90;;;;;;5031959;28;20472;-64
2021/12/30 07:02:37;;;;;;;16.70;16.10;;;20.50;99.90;;;;;;5031834;28;20445;-63
2021/12/30 07:05:04;;;;;;;16.10;15.60;;;20.50;99.90;;;;;;5040530;28;20452;-63
2021/12/30 07:07:31;;;;;;;16.00;15.50;;;20.50;99.90;;;;;;5051756;28;20851;-62
2021/12/30 07:09:58;;;;;;;16.30;15.70;;;20.50;99.90;;;;;;5051658;28;20479;-63
2021/12/30 07:12:25;;;;;;;15.60;15.10;;;20.50;99.90;;;;;;5051705;28;20459;-64
2021/12/30 07:14:53;;;;;;;15.80;15.30;;;20.50;99.90;;;;;;5051620;28;20759;-62
2021/12/30 07:17:20;;;;;;;15.50;15.00;;;20.40;99.90;;;;;;5041467;28;20544;-64
2021/12/30 07:19:46;;;;;;;15.70;15.20;;;20.40;99.90;;;;;;5031683;28;20561;-64
2021/12/30 07:22:13;;;;;;;14.80;14.40;;;20.50;99.90;;;;;;5031864;28;20802;-64
2021/12/30 07:24:39;;;;;;;15.40;14.90;;;20.50;99.90;;;;;;5033015;28;20464;-64
2021/12/30 07:27:06;;;;;;;14.97;14.47;;;20.50;99.90;;;;;;5031773;28;20485;-64
2021/12/30 07:29:33;;;;;;;15.30;14.80;;;20.40;99.90;;;;;;5042270;28;20468;-64
2021/12/30 07:32:01;;;;;;;16.10;15.60;;;20.40;99.90;;;;;;5050850;28;20864;-64
2021/12/30 07:34:28;;;;;;;15.60;15.10;;;20.40;99.90;;;;;;5051445;28;20451;-64
2021/12/30 07:36:54;;;;;;;15.20;14.70;;;20.40;99.90;;;;;;5051521;28;20436;-63
2021/12/30 07:39:21;;;;;;;15.80;15.30;;;20.40;99.90;;;;;;5051286;28;20817;-64
2021/12/30 07:41:47;;;;;;;15.50;15.00;;;20.40;99.90;;;;;;5036545;28;20449;-64
2021/12/30 07:44:15;;;;;;;14.00;13.50;;;20.40;99.90;;;;;;5031358;28;20942;-62
2021/12/30 07:46:42;;;;;;;13.27;12.97;;;20.40;99.90;;;;;;5031378;28;20944;-61
2021/12/30 07:49:10;;;;;;;14.00;13.60;;;20.40;99.90;;;;;;5031257;28;20488;-63
2021/12/30 07:51:37;;;;;;;13.70;13.30;;;20.40;99.90;;;;;;5031303;28;20453;-65
2021/12/30 07:54:03;;;;;;;13.67;13.27;;;20.40;99.90;;;;;;5049176;28;20445;-63
2021/12/30 07:56:30;;;;;;;13.93;13.53;;;20.40;99.90;;;;;;5051154;28;20967;-63
2021/12/30 07:58:58;;;;;;;13.30;13.00;;;20.40;99.90;;;;;;5051134;28;20475;-64
2021/12/30 08:01:25;;;;;;;14.13;13.63;;;20.40;99.90;;;;;;5051181;28;20813;-63
2021/12/30 08:03:51;;;;;;;13.80;13.43;;;20.40;99.90;;;;;;5054047;28;20448;-63
2021/12/30 08:06:20;;;;;;;14.00;13.60;;;20.40;99.90;;;;;;5036426;28;20456;-65
2021/12/30 08:08:47;;;;;;;14.33;13.93;;;20.40;99.90;;;;;;5034777;28;20485;-63
2021/12/30 08:11:14;;;;;;;14.10;13.70;;;20.40;99.90;;;;;;5031262;28;20946;-64
2021/12/30 08:13:40;;;;;;;14.60;14.20;;;20.40;99.90;;;;;;5030931;28;20445;-62
2021/12/30 08:16:07;;;;;;;14.30;13.90;;;20.40;99.90;;;;;;5031104;28;20857;-64
2021/12/30 08:18:34;;;;;;;14.10;13.70;;;20.40;99.90;;;;;;5031370;28;20790;-64
2021/12/30 08:21:00;;;;;;;13.27;12.97;;;20.40;99.90;;;;;;5031005;28;20456;-64
2021/12/30 08:23:28;;;;;;;13.73;13.33;;;20.40;99.90;;;;;;5030985;28;20449;-64
2021/12/30 08:25:55;;;;;;;14.10;13.60;;;20.40;99.90;;;;;;5031013;28;20440;-62
2021/12/30 08:28:22;;;;;;;13.83;13.40;;;20.40;99.90;;;;;;5031836;28;20473;-63
2021/12/30 08:30:48;;;;;;;14.30;13.90;;;20.40;99.90;;;;;;5030900;28;20451;-64
2021/12/30 08:33:15;;;;;;;14.80;14.37;;;20.40;99.90;;;;;;5030919;28;20445;-64
2021/12/30 08:35:42;;;;;;;14.23;13.83;;;20.40;99.90;;;;;;5030903;28;20445;-63
2021/12/30 08:38:09;;;;;;;14.10;13.70;;;20.40;99.90;;;;;;5032698;28;20448;-62
2021/12/30 08:40:37;;;;;;;15.00;14.50;;;20.40;99.90;;;;;;5033662;28;20483;-61
2021/12/30 08:43:06;;;;;;;14.60;14.10;;;20.40;99.90;;;;;;5034604;28;20472;-63
2021/12/30 08:45:33;;;;;;;13.97;13.57;;;20.40;99.90;;;;;;5034908;28;20511;-63
2021/12/30 08:48:00;;;;;;;13.70;13.30;;;20.40;99.90;;;;;;5039641;28;21002;-65
2021/12/30 08:50:26;;;;;;;13.10;12.77;;;20.40;99.90;;;;;;5053107;28;20463;-62
2021/12/30 08:52:53;;;;;;;14.00;13.60;;;20.40;99.90;;;;;;5054401;28;20440;-59
2021/12/30 08:55:20;;;;;;;14.10;13.70;;;20.40;99.90;;;;;;5054764;28;20448;-59
2021/12/30 08:57:49;;;;;;;13.60;13.20;;;20.40;99.90;;;;;;5041860;28;20441;-58
2021/12/30 09:00:19;;;;;;;14.17;13.67;;;20.40;99.90;;;;;;5034573;28;20761;-60
2021/12/30 09:02:46;;;;;;;13.20;12.70;;;20.40;99.90;;;;;;5034324;28;20452;-57
2021/12/30 09:05:13;;;;;;;13.43;13.07;;;20.40;99.90;;;;;;5034472;28;20449;-60
2021/12/30 09:07:40;;;;;;;13.93;13.53;;;20.50;99.90;;;;;;5045366;28;20479;-59
2021/12/30 09:10:09;;;;;;;14.13;13.70;;;20.50;99.90;;;;;;5054200;28;20472;-59
2021/12/30 09:12:36;;;;;;;14.37;13.63;;;20.50;99.90;;;;;;5053991;28;20474;-59
2021/12/30 09:15:06;;;;;;;12.40;11.90;;;20.50;99.90;;;;;;5053406;28;20439;-62
2021/12/30 09:17:33;;;;;;;13.23;12.93;;;20.60;99.90;;;;;;5054388;28;20448;-59
2021/12/30 09:20:00;;;;;;;14.53;14.03;;;20.60;99.90;;;;;;5040572;28;20525;-58
2021/12/30 09:22:26;;;;;;;14.90;14.40;;;20.70;99.90;;;;;;5034006;28;20931;-58
2021/12/30 09:24:53;;;;;;;15.13;14.63;;;20.70;99.90;;;;;;5034875;28;20455;-61
2021/12/30 09:27:21;;;;;;;14.50;14.07;;;20.60;99.90;;;;;;5044029;28;20842;-58
2021/12/30 09:29:48;;;;;;;14.30;13.80;;;20.60;99.90;;;;;;5053846;28;20470;-60
2021/12/30 09:32:16;;;;;;;14.17;13.77;;;20.60;99.90;;;;;;5053630;28;20455;-55
2021/12/30 09:34:44;;;;;;;13.77;13.37;;;20.60;99.90;;;;;;5053780;28;20452;-58
2021/12/30 09:37:11;;;;;;;14.10;13.60;;;20.60;99.90;;;;;;5045303;28;20472;-60
2021/12/30 09:39:40;;;;;;;14.10;13.70;;;20.60;99.90;;;;;;5033701;28;21064;-50
2021/12/30 09:42:07;;;;;;;14.47;14.07;;;20.60;99.90;;;;;;5023884;28;20488;-53
2021/12/30 09:44:34;;;;;;;13.87;13.47;;;20.70;99.90;;;;;;5022221;28;21232;-56
2021/12/30 09:47:01;;;;;;;14.33;13.93;;;20.70;99.90;;;;;;5041187;28;21230;-54
2021/12/30 09:49:29;;;;;;;14.10;13.70;;;20.70;99.90;;;;;;5041146;28;20483;-57
2021/12/30 09:51:56;;;;;;;13.90;13.50;;;20.80;99.90;;;;;;5039874;28;20452;-56
2021/12/30 09:54:24;;;;;;;14.20;13.80;;;20.80;99.90;;;;;;5041272;28;20555;-56
2021/12/30 09:56:51;;;;;;;14.13;13.73;;;20.80;99.90;;;;;;5021776;28;20453;-54
2021/12/30 09:59:18;;;;;;;14.60;14.20;;;20.80;99.90;;;;;;5021142;28;20839;-53
2021/12/30 10:01:45;;;;;;;14.63;14.03;;;20.80;99.90;;;;;;5020954;28;20453;-53
2021/12/30 10:04:13;;;;;;;14.90;14.50;;;20.90;99.90;;;;;;5031969;28;20456;-53
2021/12/30 10:06:44;;;;;;;14.90;14.37;;;20.90;99.90;;;;;;5041416;28;20448;-55
2021/12/30 10:09:13;;;;;;;14.40;14.00;;;20.90;99.90;;;;;;5040792;28;20915;-56
2021/12/30 10:11:49;;;;;;;14.90;14.50;;;20.90;99.90;;;;;;5033058;28;20873;-52
2021/12/30 10:14:28;;;;;;;14.40;14.00;;;21.00;99.90;;;;;;5021094;28;20465;-53
2021/12/30 10:17:14;;;;;;;14.60;14.20;;;21.00;99.90;;;;;;5021117;28;20526;-53
2021/12/30 10:19:41;;;;;;;14.70;14.30;;;21.00;99.90;;;;;;5020805;28;20497;-55
2021/12/30 10:22:11;;;;;;;14.70;14.20;;;21.10;99.90;;;;;;5032054;28;20479;-54
2021/12/30 10:24:38;;;;;;;14.73;14.33;;;21.00;99.90;;;;;;5041019;28;20443;-55
2021/12/30 10:27:07;;;;;;;14.43;14.03;;;21.10;99.90;;;;;;5040760;28;20450;-54
2021/12/30 10:29:43;;;;;;;14.30;13.90;;;21.10;99.90;;;;;;5040488;28;20491;-53
2021/12/30 10:32:16;;;;;;;14.60;14.20;;;21.10;99.90;;;;;;5040353;28;20447;-56
2021/12/30 10:35:05;;;;;;;14.20;13.80;;;21.10;99.90;;;;;;5022356;28;20481;-57
2021/12/30 10:37:34;;;;;;;14.03;13.63;;;21.20;99.90;;;;;;5020463;28;20463;-53
2021/12/30 10:40:03;;;;;;;14.27;13.87;;;21.20;99.90;;;;;;5020470;28;20472;-56
2021/12/30 10:42:33;;;;;;;14.10;13.70;;;21.20;99.90;;;;;;5020667;28;20912;-54
2021/12/30 10:45:04;;;;;;;12.60;12.20;;;21.30;99.90;;;;;;5021130;28;20445;-56
2021/12/30 10:47:32;;;;;;;14.10;13.70;;;21.30;99.90;;;;;;5040126;28;20455;-55
2021/12/30 10:50:01;;;;;;;13.77;13.37;;;21.30;99.90;;;;;;5040197;28;20232;-55
2021/12/30 10:52:28;;;;;;;14.33;13.93;;;21.30;99.90;;;;;;5039801;28;20468;-55
2021/12/30 10:54:59;;;;;;;12.82;12.50;;;21.30;99.90;;;;;;5038931;28;20443;-56
2021/12/30 10:57:30;;;;;;;15.10;14.70;;;21.40;99.90;;;;;;5037575;28;20284;-54
2021/12/30 10:59:58;;;;;;;14.30;13.90;;;21.40;99.90;;;;;;5020250;28;20475;-56
2021/12/30 11:02:27;;;;;;;13.30;12.90;;;21.50;99.90;;;;;;5018967;28;20552;-56
2021/12/30 11:04:56;;;;;;;13.55;13.15;;;21.50;99.90;;;;;;5019347;28;20812;-54
2021/12/30 11:07:27;;;;;;;15.10;14.70;;;21.60;99.90;;;;;;5035695;28;20450;-53
2021/12/30 11:09:56;;;;;;;15.23;14.73;;;21.60;99.90;;;;;;5039695;28;20244;-52
2021/12/30 11:12:27;;;;;;;14.30;13.90;;;21.60;99.90;;;;;;5039814;28;20532;-54
2021/12/30 11:14:55;;;;;;;14.83;14.43;;;21.60;99.90;;;;;;5039959;28;20453;-58
2021/12/30 11:17:29;;;;;;;15.37;14.80;;;21.60;99.90;;;;;;5024420;28;20441;-57
2021/12/30 11:19:58;;;;;;;15.10;14.60;;;21.60;99.90;;;;;;5019995;28;21251;-63
2021/12/30 11:22:26;;;;;;;15.20;14.73;;;21.60;99.90;;;;;;5019702;28;20534;-62
2021/12/30 11:24:55;;;;;;;14.53;14.13;;;21.60;99.90;;;;;;5020588;28;20930;-59
2021/12/30 11:27:24;;;;;;;14.00;13.60;;;21.70;99.90;;;;;;5020480;28;20453;-62
2021/12/30 11:29:55;;;;;;;14.93;14.53;;;21.80;99.90;;;;;;5039790;28;20555;-64
2021/12/30 11:32:24;;;;;;;14.23;13.83;;;21.90;99.90;;;;;;5039787;28;20951;-60
2021/12/30 11:34:51;;;;;;;14.05;13.65;;;22.10;99.90;;;;;;5039507;28;20444;-55
2021/12/30 11:37:19;;;;;;;13.82;13.43;;;22.30;99.90;;;;;;5039194;28;20795;-55
2021/12/30 11:39:49;;;;;;;13.93;13.53;;;22.50;99.90;;;;;;5034749;28;20210;-57
2021/12/30 11:42:19;;;;;;;14.17;13.77;;;22.60;99.90;;;;;;5019472;28;20444;-59
2021/12/30 11:44:49;;;;;;;14.90;14.40;;;22.70;99.90;;;;;;5019650;28;20488;-58
2021/12/30 11:47:40;;;;;;;14.70;14.30;;;22.80;99.90;;;;;;5019926;28;20449;-65
2021/12/30 11:50:11;;;;;;;14.50;14.00;;;22.90;99.90;;;;;;5020375;28;20480;-60
2021/12/30 11:52:57;;;;;;;14.23;13.83;;;22.90;99.90;;;;;;5033184;28;20455;-60
2021/12/30 11:55:52;;;;;;;14.00;13.60;;;23.00;99.90;;;;;;5039757;28;20444;-57
2021/12/30 11:58:48;;;;;;;14.50;14.10;;;23.00;99.90;;;;;;5039600;28;20448;-62
2021/12/30 12:01:33;;;;;;;14.20;13.80;;;23.10;99.40;;;;;;5039520;28;20458;-64
2021/12/30 12:04:03;;;;;;;14.30;13.90;;;23.20;99.10;;;;;;5028675;28;20455;-59
2021/12/30 12:06:34;;;;;;;14.20;13.80;;;23.20;98.70;;;;;;5020627;28;20456;-60
2021/12/30 12:09:05;;;;;;;13.90;13.50;;;23.30;98.60;;;;;;5019529;28;20546;-61
2021/12/30 12:11:47;;;;;;;13.17;12.77;;;23.40;98.40;;;;;;5019229;28;20449;-61
2021/12/30 12:14:16;;;;;;;14.87;14.47;;;23.50;98.10;;;;;;5033174;28;21129;-60
2021/12/30 12:16:47;;;;;;;14.20;13.80;;;23.60;97.50;;;;;;5044926;28;20522;-61
2021/12/30 12:19:17;;;;;;;12.30;12.00;;;23.70;96.90;;;;;;5043809;28;20687;-60
2021/12/30 12:21:46;;;;;;;13.35;12.95;;;23.80;97.00;;;;;;5031414;28;20835;-59
2021/12/30 12:24:33;;;;;;;14.47;14.07;;;23.90;96.50;;;;;;5025305;28;20206;-59
2021/12/30 12:27:02;;;;;;;14.37;13.97;;;24.00;95.50;;;;;;5016932;28;20484;-59
2021/12/30 12:29:32;;;;;;;13.02;12.63;;;24.00;95.30;;;;;;5023812;28;20456;-60
2021/12/30 12:32:10;;;;;;;14.83;14.10;;;24.10;95.40;;;;;;5025896;28;20205;-60
2021/12/30 12:34:42;;;;;;;15.60;14.70;;;24.10;94.70;;;;;;5033289;28;20810;-59